Eight Mile, Alabama
Current Conditions -  °F | °C
As of 8:56 AM on Thursday 23 Oct 2014 (Local Time) from KMOB Reporting Station
Few Clouds Few Clouds  
Wind Chill: 13°   Ceiling: Unl
Heat Index: 13°   Visibility: 10mi
Dew Point:   Wind: 12mph
Humidity: 72%   Direction: 40°NE
Pressure: 30.13"   Gusts: NA
Location:  30.76°N, 88.13°W
Report Text: KMOB 231356Z 04010KT 10SM FEW060 13/08 A3013 RMK AO2 SLP200 T01280078
Loading
Personal Weather Stations






























Interactive Weather Map
Tropical Storm Tracking
New forecast layout! Learn more

10-Day Weather Forecast

Advertisements
Track Severe Weather on mobile